Time;durP1;ratioP1;P1;durP2;ratioP2;P2;SDS_P1;SDS_P2;PMS_P1;PMS_P2;Temp;Humidity;BMP_temperature;BMP_pressure;BME280_temperature;BME280_humidity;BME280_pressure;Samples;Min_cycle;Max_cycle;Signal;HPM_P1;HPM_P2
2022/05/24 00:02:19;;;;;;;;;;;;;;;17.97;63.41;99234.16;5046681;28;19909;-17
2022/05/24 00:04:44;;;;;;;;;;;;;;;17.95;63.73;99236.09;5042880;28;20299;-18
2022/05/24 00:07:09;;;;;;;;;;;;;;;17.91;63.63;99226.56;5046539;28;19912;-18
2022/05/24 00:09:34;;;;;;;;;;;;;;;17.91;64.11;99237.25;5039232;28;19916;-17
2022/05/24 00:11:59;;;;;;;;;;;;;;;17.87;63.41;99235.72;5043103;28;19916;-18
2022/05/24 00:17:08;;;;;;;;;;;;;;;17.83;64.21;99246.59;5040997;28;19916;-18
2022/05/24 00:19:34;;;;;;;;;;;;;;;17.81;64.06;99240.47;5042483;28;19917;-18
2022/05/24 00:21:59;;;;;;;;;;;;;;;17.79;63.95;99234.41;5039946;28;19913;-18
2022/05/24 00:24:24;;;;;;;;;;;;;;;17.76;63.87;99241.72;5043291;28;20038;-18
2022/05/24 00:26:50;;;;;;;;;;;;;;;17.76;64.32;99244.38;5040086;28;20686;-18
2022/05/24 00:29:15;;;;;;;;;;;;;;;17.75;64.59;99248.88;5041335;28;20290;-18
2022/05/24 00:31:40;;;;;;;;;;;;;;;17.72;64.03;99254.38;5038680;28;20323;-18
2022/05/24 00:34:05;;;;;;;;;;;;;;;17.72;64.04;99254.38;5022391;28;19909;-18
2022/05/24 00:36:30;;;;;;;;;;;;;;;17.71;63.45;99258.03;5042771;28;19924;-18
2022/05/24 00:38:56;;;;;;;;;;;;;;;17.69;63.58;99255.44;5043540;28;19923;-18
2022/05/24 00:41:24;;;;;;;;;;;;;;;17.68;63.66;99264.38;5042223;28;19912;-18
2022/05/24 00:43:56;;;;;;;;;;;;;;;17.68;63.32;99266.19;5023973;28;20364;-18
2022/05/24 00:46:22;;;;;;;;;;;;;;;17.65;63.58;99264.59;5042252;28;20402;-18
2022/05/24 00:49:07;;;;;;;;;;;;;;;17.66;63.85;99262.75;5030316;28;19977;-18
2022/05/24 00:51:37;;;;;;;;;;;;;;;17.62;63.60;99266.56;5038942;28;20268;-18
2022/05/24 00:54:02;;;;;;;;;;;;;;;17.61;63.08;99270.19;5039147;28;19915;-18
2022/05/24 00:56:41;;;;;;;;;;;;;;;17.60;63.27;99260.47;5039097;28;19928;-18
2022/05/24 00:59:07;;;;;;;;;;;;;;;17.57;63.36;99265.03;5043870;28;19916;-18
2022/05/24 01:01:37;;;;;;;;;;;;;;;17.56;62.92;99266.00;5022723;28;19921;-18
2022/05/24 01:04:03;;;;;;;;;;;;;;;17.56;63.82;99276.66;5023640;28;19908;-18
2022/05/24 01:06:28;;;;;;;;;;;;;;;17.54;64.17;99275.03;5039407;28;19924;-18
2022/05/24 01:08:54;;;;;;;;;;;;;;;17.53;64.18;99287.50;5039961;28;20007;-18
2022/05/24 01:11:19;;;;;;;;;;;;;;;17.50;63.13;99282.34;5044724;28;19912;-18
2022/05/24 01:13:44;;;;;;;;;;;;;;;17.49;63.94;99283.31;5027337;28;20000;-18
2022/05/24 01:16:10;;;;;;;;;;;;;;;17.49;63.23;99288.63;5027430;28;19952;-18
2022/05/24 01:18:35;;;;;;;;;;;;;;;17.47;63.32;99279.03;5039734;28;19955;-18
2022/05/24 01:21:03;;;;;;;;;;;;;;;17.47;63.99;99284.34;5024914;28;20063;-18
2022/05/24 01:23:38;;;;;;;;;;;;;;;17.44;64.89;99282.75;5039038;28;20007;-18
2022/05/24 01:26:11;;;;;;;;;;;;;;;17.43;67.63;99294.31;5041805;28;19912;-18
2022/05/24 01:28:45;;;;;;;;;;;;;;;17.42;68.92;99284.63;5044359;28;19916;-18
2022/05/24 01:31:10;;;;;;;;;;;;;;;17.42;69.26;99295.28;5041650;28;19924;-18
2022/05/24 01:36:22;;;;;;;;;;;;;;;17.48;71.26;99297.59;5046252;28;19932;-18
2022/05/24 01:38:48;;;;;;;;;;;;;;;17.50;71.90;99301.00;5037595;28;19917;-21
2022/05/24 01:41:33;;;;;;;;;;;;;;;17.53;72.88;99310.63;5026164;28;19913;-19
2022/05/24 01:43:58;;;;;;;;;;;;;;;17.55;73.11;99309.56;5027752;28;20109;-18
2022/05/24 01:46:29;;;;;;;;;;;;;;;17.59;73.56;99304.06;5040065;28;20003;-19
2022/05/24 01:48:56;;;;;;;;;;;;;;;17.61;74.55;99299.50;5005369;28;19917;-18
2022/05/24 01:51:24;;;;;;;;;;;;;;;17.61;74.96;99316.34;5040997;28;20015;-19
2022/05/24 01:53:50;;;;;;;;;;;;;;;17.62;74.34;99312.75;5027887;28;19959;-18
2022/05/24 01:56:17;;;;;;;;;;;;;;;17.62;74.87;99307.41;5027337;28;19966;-19
2022/05/24 01:58:44;;;;;;;;;;;;;;;17.63;74.96;99316.25;5043812;28;19991;-18
2022/05/24 02:01:12;;;;;;;;;;;;;;;17.62;75.13;99315.41;5030733;28;20595;-18
2022/05/24 02:03:37;;;;;;;;;;;;;;;17.63;74.62;99318.91;5038520;28;20050;-18
2022/05/24 02:06:35;;;;;;;;;;;;;;;17.63;74.11;99316.25;5024562;28;20003;-18
2022/05/24 02:09:00;;;;;;;;;;;;;;;17.62;74.15;99319.88;5009890;28;19956;-19
2022/05/24 02:11:29;;;;;;;;;;;;;;;17.61;74.55;99316.34;5043206;28;20332;-19
2022/05/24 02:13:59;;;;;;;;;;;;;;;17.60;74.65;99324.47;5035641;28;20003;-18
2022/05/24 02:16:25;;;;;;;;;;;;;;;17.60;74.01;99319.13;5042275;28;19915;-19
2022/05/24 02:18:51;;;;;;;;;;;;;;;17.60;74.67;99329.78;5042707;28;19913;-18
2022/05/24 02:21:16;;;;;;;;;;;;;;;17.58;74.03;99332.56;5017035;28;19937;-18
2022/05/24 02:23:46;;;;;;;;;;;;;;;17.57;73.02;99331.69;5041751;28;20301;-18
2022/05/24 02:26:11;;;;;;;;;;;;;;;17.56;73.06;99327.31;5043969;28;19917;-18
2022/05/24 02:28:37;;;;;;;;;;;;;;;17.53;73.70;99330.16;5042913;28;19909;-19
2022/05/24 02:31:03;;;;;;;;;;;;;;;17.52;73.32;99339.09;5036448;28;20344;-18
2022/05/24 02:33:29;;;;;;;;;;;;;;;17.49;73.44;99336.63;5041981;28;20431;-18
2022/05/24 02:35:54;;;;;;;;;;;;;;;17.46;73.34;99342.13;5027835;28;19909;-18
2022/05/24 02:38:20;;;;;;;;;;;;;;;17.43;74.57;99343.16;5041037;28;19908;-18
2022/05/24 02:43:29;;;;;;;;;;;;;;;17.43;74.09;99350.28;5030031;28;19916;-18
2022/05/24 02:45:54;;;;;;;;;;;;;;;17.43;72.38;99350.28;5044679;28;19917;-18
2022/05/24 02:48:20;;;;;;;;;;;;;;;17.45;71.49;99367.06;5040338;28;19908;-18
2022/05/24 02:50:46;;;;;;;;;;;;;;;17.42;71.19;99369.91;5045043;28;19920;-18
2022/05/24 02:53:11;;;;;;;;;;;;;;;17.39;70.93;99376.28;5044698;28;20368;-18
2022/05/24 02:55:36;;;;;;;;;;;;;;;17.38;70.50;99377.22;5047692;28;19970;-17
2022/05/24 02:58:02;;;;;;;;;;;;;;;17.36;70.52;99392.44;5043703;28;20011;-19
2022/05/24 03:00:27;;;;;;;;;;;;;;;17.35;70.20;99395.19;5042643;28;19913;-18
2022/05/24 03:02:53;;;;;;;;;;;;;;;17.30;70.11;99398.97;5040833;28;20020;-19
2022/05/24 03:05:18;;;;;;;;;;;;;;;17.27;70.26;99396.50;5043493;28;19925;-18
2022/05/24 03:10:28;;;;;;;;;;;;;;;17.23;69.74;99408.28;5040628;28;19915;-18
2022/05/24 03:15:37;;;;;;;;;;;;;;;17.16;69.39;99422.88;5048010;28;20008;-18
2022/05/24 03:18:02;;;;;;;;;;;;;;;17.13;69.35;99437.25;5043627;28;19992;-19
2022/05/24 03:20:27;;;;;;;;;;;;;;;17.11;68.90;99440.94;5045666;28;19916;-18
2022/05/24 03:22:53;;;;;;;;;;;;;;;17.09;68.93;99443.69;5049584;28;20032;-19
2022/05/24 03:25:18;;;;;;;;;;;;;;;17.04;68.54;99451.91;5050142;28;20015;-19
2022/05/24 03:27:46;;;;;;;;;;;;;;;17.02;68.81;99461.78;5048891;28;19917;-18
2022/05/24 03:30:11;;;;;;;;;;;;;;;17.01;68.83;99462.72;5048232;28;19916;-18
2022/05/24 03:32:36;;;;;;;;;;;;;;;16.96;69.01;99464.78;5043256;28;19919;-18
2022/05/24 03:35:02;;;;;;;;;;;;;;;16.94;68.99;99461.34;5027344;28;20376;-18
2022/05/24 03:37:28;;;;;;;;;;;;;;;16.90;68.66;99458.00;5026672;28;19921;-18
2022/05/24 03:39:53;;;;;;;;;;;;;;;16.89;69.05;99463.41;5046426;28;19991;-18
2022/05/24 03:42:18;;;;;;;;;;;;;;;16.87;68.98;99468.81;5044317;28;20288;-18
2022/05/24 03:44:43;;;;;;;;;;;;;;;16.86;69.10;99471.56;5047705;28;20360;-19
2022/05/24 03:47:08;;;;;;;;;;;;;;;16.84;68.79;99462.81;5043424;28;20352;-18
2022/05/24 03:49:34;;;;;;;;;;;;;;;16.84;68.57;99476.13;5044675;28;20292;-18
2022/05/24 03:51:59;;;;;;;;;;;;;;;16.82;68.62;99468.22;5046022;28;20286;-18
2022/05/24 03:54:24;;;;;;;;;;;;;;;16.82;68.30;99473.53;5045220;28;20300;-18
2022/05/24 03:59:33;;;;;;;;;;;;;;;16.80;67.87;99484.28;5041706;28;20308;-19
2022/05/24 04:01:58;;;;;;;;;;;;;;;16.80;67.95;99488.72;5046818;28;19909;-19
2022/05/24 04:04:24;;;;;;;;;;;;;;;16.76;67.80;99485.38;5043216;28;20340;-20
2022/05/24 04:06:49;;;;;;;;;;;;;;;16.74;67.83;99484.59;5043268;28;20003;-19
2022/05/24 04:09:14;;;;;;;;;;;;;;;16.72;68.04;99481.16;5043886;28;19909;-18
2022/05/24 04:11:39;;;;;;;;;;;;;;;16.73;67.90;99490.00;5048363;28;19909;-18
2022/05/24 04:14:05;;;;;;;;;;;;;;;16.71;67.60;99495.44;5031166;28;19916;-18
2022/05/24 04:16:31;;;;;;;;;;;;;;;16.71;67.56;99508.75;5043122;28;19928;-19
2022/05/24 04:18:56;;;;;;;;;;;;;;;16.70;67.58;99507.00;5046599;28;19962;-18
2022/05/24 04:21:21;;;;;;;;;;;;;;;16.68;67.67;99514.22;5042046;28;19917;-18
2022/05/24 04:23:47;;;;;;;;;;;;;;;16.67;67.74;99513.34;5042416;28;19916;-18
2022/05/24 04:26:12;;;;;;;;;;;;;;;16.65;67.47;99509.94;5042317;28;19916;-19
2022/05/24 04:28:37;;;;;;;;;;;;;;;16.67;67.49;99517.81;5046544;28;19909;-18
2022/05/24 04:31:04;;;;;;;;;;;;;;;16.67;67.37;99509.81;5047157;28;19915;-18
2022/05/24 04:33:29;;;;;;;;;;;;;;;16.67;67.19;99518.69;5045865;28;20014;-18
2022/05/24 04:35:55;;;;;;;;;;;;;;;16.68;67.25;99519.56;5044481;28;19991;-18
2022/05/24 04:38:20;;;;;;;;;;;;;;;16.69;66.88;99515.94;5046081;28;19909;-17
2022/05/24 04:43:30;;;;;;;;;;;;;;;16.70;67.07;99525.63;5044985;28;19935;-19
2022/05/24 04:45:56;;;;;;;;;;;;;;;16.71;66.93;99521.19;5042816;28;19959;-19
2022/05/24 04:48:22;;;;;;;;;;;;;;;16.71;67.02;99524.72;5046018;28;19912;-18
2022/05/24 04:50:51;;;;;;;;;;;;;;;16.72;66.72;99531.75;5045898;28;20311;-19
2022/05/24 04:53:16;;;;;;;;;;;;;;;16.73;66.64;99533.47;5044119;28;19915;-19
2022/05/24 04:55:42;;;;;;;;;;;;;;;16.74;66.78;99529.00;5043165;28;19909;-18
2022/05/24 04:58:09;;;;;;;;;;;;;;;16.74;66.98;99535.19;5040860;28;19956;-18
2022/05/24 05:00:35;;;;;;;;;;;;;;;16.75;67.09;99531.59;5039427;28;19908;-17
2022/05/24 05:03:05;;;;;;;;;;;;;;;16.77;67.21;99532.34;5042929;28;19943;-18
2022/05/24 05:05:31;;;;;;;;;;;;;;;16.79;67.11;99530.50;5043282;28;19909;-18
2022/05/24 05:07:56;;;;;;;;;;;;;;;16.82;67.10;99536.56;5028578;28;20004;-18
2022/05/24 05:10:21;;;;;;;;;;;;;;;16.86;67.30;99543.44;5039825;28;19959;-18
2022/05/24 05:12:47;;;;;;;;;;;;;;;16.90;67.31;99539.69;5040987;28;19921;-19
2022/05/24 05:15:14;;;;;;;;;;;;;;;16.92;67.28;99544.00;5041937;28;20007;-19
2022/05/24 05:17:39;;;;;;;;;;;;;;;16.97;67.60;99546.41;5042326;28;19995;-18
2022/05/24 05:20:05;;;;;;;;;;;;;;;17.01;67.39;99547.09;5043859;28;20377;-17
2022/05/24 05:22:30;;;;;;;;;;;;;;;17.04;67.79;99558.44;5041014;28;20394;-18
2022/05/24 05:24:55;;;;;;;;;;;;;;;17.05;67.52;99554.84;5043377;28;20296;-18
2022/05/24 05:27:20;;;;;;;;;;;;;;;17.08;67.63;99559.19;5044295;28;20389;-19
2022/05/24 05:32:33;;;;;;;;;;;;;;;17.13;67.27;99567.78;5042970;28;19932;-18
2022/05/24 05:34:58;;;;;;;;;;;;;;;17.16;67.39;99566.75;5045874;28;20481;-18
2022/05/24 05:37:25;;;;;;;;;;;;;;;17.18;67.58;99563.03;5022898;28;20380;-19
2022/05/24 05:39:50;;;;;;;;;;;;;;;17.21;67.42;99562.03;5045207;28;19913;-18
2022/05/24 05:42:16;;;;;;;;;;;;;;;17.23;67.05;99562.81;5027997;28;19963;-19
2022/05/24 05:44:41;;;;;;;;;;;;;;;17.25;67.27;99568.94;5044319;28;19913;-18
2022/05/24 05:47:06;;;;;;;;;;;;;;;17.25;67.29;99576.91;5046487;28;19924;-18
2022/05/24 05:49:31;;;;;;;;;;;;;;;17.25;67.19;99582.25;5044318;28;19909;-19
2022/05/24 05:51:57;;;;;;;;;;;;;;;17.29;67.16;99583.78;5041801;28;19924;-18
2022/05/24 05:54:23;;;;;;;;;;;;;;;17.31;67.60;99581.88;5037814;28;19908;-19
2022/05/24 05:56:49;;;;;;;;;;;;;;;17.35;68.18;99587.94;5038515;28;19909;-19
2022/05/24 05:59:14;;;;;;;;;;;;;;;17.38;67.93;99589.56;5043631;28;19919;-18
2022/05/24 06:01:39;;;;;;;;;;;;;;;17.43;68.04;99600.81;5044946;28;19913;-19
2022/05/24 06:04:04;;;;;;;;;;;;;;;17.49;68.12;99603.16;5025642;28;19920;-18
2022/05/24 06:06:31;;;;;;;;;;;;;;;17.54;67.73;99609.09;5039144;28;19924;-18
2022/05/24 06:08:56;;;;;;;;;;;;;;;17.61;68.11;99606.09;5041071;28;19955;-18
2022/05/24 06:11:23;;;;;;;;;;;;;;;17.66;67.90;99607.56;5039757;28;19921;-18
2022/05/24 06:13:48;;;;;;;;;;;;;;;17.74;67.91;99616.94;5038792;28;19916;-18
2022/05/24 06:16:14;;;;;;;;;;;;;;;17.79;67.64;99618.38;5048578;28;19924;-18
2022/05/24 06:18:39;;;;;;;;;;;;;;;17.86;67.65;99618.03;5043653;28;19948;-18
2022/05/24 06:21:04;;;;;;;;;;;;;;;17.91;68.05;99616.81;5043476;28;19956;-17
2022/05/24 06:23:30;;;;;;;;;;;;;;;17.95;67.75;99612.19;5044641;28;19913;-19
2022/05/24 06:25:55;;;;;;;;;;;;;;;17.98;67.83;99617.34;5043862;28;20368;-18
2022/05/24 06:28:20;;;;;;;;;;;;;;;18.02;67.57;99618.03;5044721;28;20383;-18
2022/05/24 06:30:45;;;;;;;;;;;;;;;18.07;67.56;99626.59;5044952;28;19934;-18
2022/05/24 06:33:11;;;;;;;;;;;;;;;18.12;67.94;99626.38;5048229;28;20399;-19
2022/05/24 06:35:37;;;;;;;;;;;;;;;18.18;68.04;99628.72;5046326;28;20004;-18
2022/05/24 06:38:02;;;;;;;;;;;;;;;18.19;68.12;99625.97;5031661;28;19959;-18
2022/05/24 06:40:27;;;;;;;;;;;;;;;18.24;68.15;99623.00;5044676;28;19917;-18
2022/05/24 06:42:52;;;;;;;;;;;;;;;18.28;67.71;99635.22;5048489;28;20377;-18
2022/05/24 06:45:18;;;;;;;;;;;;;;;18.38;68.03;99643.56;5026408;28;20381;-18
2022/05/24 06:47:43;;;;;;;;;;;;;;;18.49;68.10;99637.59;5031447;28;20012;-18
2022/05/24 06:50:09;;;;;;;;;;;;;;;18.57;67.81;99646.00;5047492;28;19909;-18
2022/05/24 06:52:34;;;;;;;;;;;;;;;18.63;67.41;99647.44;5042210;28;20000;-18
2022/05/24 06:54:59;;;;;;;;;;;;;;;18.71;67.18;99641.66;5044322;28;20292;-18
2022/05/24 06:57:25;;;;;;;;;;;;;;;18.81;67.06;99652.66;5039227;28;19962;-18
2022/05/24 07:02:34;;;;;;;;;;;;;;;18.93;66.43;99664.38;5041931;28;19922;-18
2022/05/24 07:05:12;;;;;;;;;;;;;;;18.97;65.83;99671.25;5046279;28;19908;-18
2022/05/24 07:07:38;;;;;;;;;;;;;;;19.01;65.76;99667.50;5048891;28;20003;-18
2022/05/24 07:10:04;;;;;;;;;;;;;;;19.05;65.10;99670.81;5041475;28;20003;-19
2022/05/24 07:12:29;;;;;;;;;;;;;;;19.07;65.11;99664.44;5045835;28;20329;-18
2022/05/24 07:14:56;;;;;;;;;;;;;;;19.12;65.03;99660.63;5045056;28;20398;-18
2022/05/24 07:17:21;;;;;;;;;;;;;;;19.16;64.97;99662.16;5047326;28;19921;-18
2022/05/24 07:19:47;;;;;;;;;;;;;;;19.20;64.58;99666.38;5043247;28;20319;-18
2022/05/24 07:22:12;;;;;;;;;;;;;;;19.23;64.69;99676.88;5046414;28;20368;-18
2022/05/24 07:24:38;;;;;;;;;;;;;;;19.26;64.80;99678.50;5050026;28;20288;-18
2022/05/24 07:27:07;;;;;;;;;;;;;;;19.30;64.83;99683.56;5046583;28;19920;-18
2022/05/24 07:29:32;;;;;;;;;;;;;;;19.34;64.59;99687.75;5048525;28;19916;-18
2022/05/24 07:31:58;;;;;;;;;;;;;;;19.35;64.49;99684.13;5046003;28;19909;-18
2022/05/24 07:34:23;;;;;;;;;;;;;;;19.40;64.17;99681.19;5041643;28;19909;-19
2022/05/24 07:36:48;;;;;;;;;;;;;;;19.46;64.41;99685.28;5044216;28;19909;-18
2022/05/24 07:39:13;;;;;;;;;;;;;;;19.49;64.50;99677.06;5045693;28;19916;-18
2022/05/24 07:47:13;;;;;;;;;;;;;;;19.66;63.86;99681.38;5045655;28;19963;-19
2022/05/24 07:49:39;;;;;;;;;;;;;;;19.70;63.69;99676.66;5044783;28;19916;-18
2022/05/24 07:52:04;;;;;;;;;;;;;;;19.73;63.51;99676.47;5031556;28;20343;-18
2022/05/24 07:54:30;;;;;;;;;;;;;;;19.77;63.44;99680.66;5044856;28;20276;-18
2022/05/24 07:56:55;;;;;;;;;;;;;;;19.82;63.25;99675.91;5045750;28;19912;-19
2022/05/24 07:59:20;;;;;;;;;;;;;;;19.87;63.04;99679.13;5030681;28;19916;-19
2022/05/24 08:01:46;;;;;;;;;;;;;;;19.88;63.23;99675.50;5045427;28;20431;-19
2022/05/24 08:04:11;;;;;;;;;;;;;;;19.91;63.08;99678.94;5041075;28;20299;-18
2022/05/24 08:06:36;;;;;;;;;;;;;;;19.96;62.84;99691.06;5042136;28;19947;-18
2022/05/24 08:09:02;;;;;;;;;;;;;;;19.99;62.52;99681.97;5042024;28;19956;-19
2022/05/24 08:11:27;;;;;;;;;;;;;;;19.99;62.41;99684.66;5043398;28;19915;-19
2022/05/24 08:13:52;;;;;;;;;;;;;;;20.00;62.56;99684.59;5049065;28;19916;-19
2022/05/24 08:16:17;;;;;;;;;;;;;;;20.04;62.37;99684.41;5046428;28;20304;-19
2022/05/24 08:18:44;;;;;;;;;;;;;;;20.07;62.65;99682.38;5025091;28;20360;-19
2022/05/24 08:21:09;;;;;;;;;;;;;;;20.13;62.86;99686.47;5046314;28;20303;-18
2022/05/24 08:23:34;;;;;;;;;;;;;;;20.19;62.24;99683.41;5043624;28;20123;-19
2022/05/24 08:25:59;;;;;;;;;;;;;;;20.23;62.38;99686.72;5046035;28;19908;-19
2022/05/24 08:28:25;;;;;;;;;;;;;;;20.26;62.35;99694.56;5044675;28;20420;-18
2022/05/24 08:30:50;;;;;;;;;;;;;;;20.29;62.04;99691.69;5028052;28;20363;-18
2022/05/24 08:33:16;;;;;;;;;;;;;;;20.34;61.92;99700.25;5043062;28;19909;-18
2022/05/24 08:35:42;;;;;;;;;;;;;;;20.40;62.25;99684.78;5042923;28;19982;-19
2022/05/24 08:38:08;;;;;;;;;;;;;;;20.44;62.31;99678.25;5027129;28;20377;-18
2022/05/24 08:40:34;;;;;;;;;;;;;;;20.56;62.23;99685.44;5033875;28;19935;-19
2022/05/24 08:43:11;;;;;;;;;;;;;;;20.64;61.74;99685.78;5040508;28;19946;-19
2022/05/24 08:48:53;;;;;;;;;;;;;;;20.88;60.99;99694.97;5046721;28;20099;-19
2022/05/24 08:51:32;;;;;;;;;;;;;;;20.92;60.34;99693.81;5043677;28;20022;-19
2022/05/24 08:54:03;;;;;;;;;;;;;;;21.04;60.16;99699.28;5043671;28;19917;-19
2022/05/24 08:56:30;;;;;;;;;;;;;;;21.14;59.77;99695.88;5037896;28;21055;-19
2022/05/24 08:58:57;;;;;;;;;;;;;;;21.24;59.98;99690.72;5044058;28;19920;-18
2022/05/24 09:01:23;;;;;;;;;;;;;;;21.29;60.45;99690.41;5023369;28;19916;-18
2022/05/24 09:03:49;;;;;;;;;;;;;;;21.36;60.92;99685.47;5043623;28;19920;-18
2022/05/24 09:06:24;;;;;;;;;;;;;;;21.47;60.80;99684.72;5043382;28;19917;-19
2022/05/24 09:09:12;;;;;;;;;;;;;;;21.62;60.02;99683.63;5044516;28;19967;-19
2022/05/24 09:11:45;;;;;;;;;;;;;;;21.68;59.87;99685.00;5043846;28;20331;-19
2022/05/24 09:14:11;;;;;;;;;;;;;;;21.81;59.45;99681.47;5044687;28;20008;-19
2022/05/24 09:16:40;;;;;;;;;;;;;;;21.86;59.20;99696.25;5042354;28;19962;-19
2022/05/24 09:19:38;;;;;;;;;;;;;;;21.83;59.78;99690.25;5042923;28;20403;-18
2022/05/24 09:22:04;;;;;;;;;;;;;;;21.84;60.02;99697.34;5009445;28;20030;-18
2022/05/24 09:24:43;;;;;;;;;;;;;;;21.94;59.68;99697.53;5041056;28;20376;-19
2022/05/24 09:27:20;;;;;;;;;;;;;;;22.05;59.83;99689.56;5042148;28;20037;-19
2022/05/24 09:29:52;;;;;;;;;;;;;;;22.27;58.52;99693.31;5045160;28;19965;-18
2022/05/24 09:32:17;;;;;;;;;;;;;;;22.35;57.98;99699.00;5042160;28;19915;-19
2022/05/24 09:34:42;;;;;;;;;;;;;;;22.46;57.80;99690.13;5043359;28;19913;-18
2022/05/24 09:37:17;;;;;;;;;;;;;;;22.54;58.90;99684.19;5038063;28;19909;-19
2022/05/24 09:39:42;;;;;;;;;;;;;;;22.68;58.22;99689.38;5040255;28;19960;-18
2022/05/24 09:42:12;;;;;;;;;;;;;;;22.77;58.36;99684.31;5040568;28;19960;-18
2022/05/24 09:44:47;;;;;;;;;;;;;;;22.78;58.05;99680.66;5043159;28;20487;-18
2022/05/24 09:47:45;;;;;;;;;;;;;;;22.88;57.35;99672.72;5042306;28;20258;-18
2022/05/24 09:50:20;;;;;;;;;;;;;;;22.92;56.50;99687.63;5033069;28;19938;-18
2022/05/24 09:53:06;;;;;;;;;;;;;;;22.91;56.19;99689.47;5042609;28;19909;-18
2022/05/24 09:55:40;;;;;;;;;;;;;;;22.90;55.86;99679.69;5045679;28;19917;-19
2022/05/24 09:58:18;;;;;;;;;;;;;;;22.92;56.06;99677.75;5050436;28;19975;-18
2022/05/24 10:00:47;;;;;;;;;;;;;;;22.97;56.47;99673.84;5047881;28;19923;-18
2022/05/24 10:03:12;;;;;;;;;;;;;;;23.05;54.89;99666.03;5048236;28;20475;-18
2022/05/24 10:05:38;;;;;;;;;;;;;;;23.06;54.37;99673.13;5048697;28;20003;-18
2022/05/24 10:08:04;;;;;;;;;;;;;;;23.03;54.02;99676.91;5033003;28;19913;-18
2022/05/24 10:10:39;;;;;;;;;;;;;;;22.99;53.35;99678.13;5047577;28;19909;-18
2022/05/24 10:13:19;;;;;;;;;;;;;;;22.97;53.80;99680.06;5051602;28;19913;-18
2022/05/24 10:15:59;;;;;;;;;;;;;;;23.01;54.42;99678.84;5044818;28;19948;-18
2022/05/24 10:18:43;;;;;;;;;;;;;;;23.05;54.21;99685.69;5049869;28;19967;-18
2022/05/24 10:21:11;;;;;;;;;;;;;;;23.06;54.15;99689.25;5049812;28;19919;-18
2022/05/24 10:23:38;;;;;;;;;;;;;;;23.08;53.97;99690.00;5047050;28;19955;-18
2022/05/24 10:26:09;;;;;;;;;;;;;;;23.08;54.31;99692.69;5051772;28;19908;-18
2022/05/24 10:28:47;;;;;;;;;;;;;;;23.13;54.06;99695.00;5048214;28;19921;-18
2022/05/24 10:31:16;;;;;;;;;;;;;;;23.15;54.12;99693.94;5049185;28;19920;-18
2022/05/24 10:39:43;;;;;;;;;;;;;;;23.19;54.60;99710.69;5031204;28;19916;-18
2022/05/24 10:42:31;;;;;;;;;;;;;;;23.17;55.07;99721.53;5024858;28;19921;-18
2022/05/24 10:45:09;;;;;;;;;;;;;;;23.08;55.98;99714.22;5039857;28;19913;-18
2022/05/24 10:47:49;;;;;;;;;;;;;;;23.05;55.74;99717.97;5043782;28;19971;-18
2022/05/24 10:50:18;;;;;;;;;;;;;;;23.00;56.07;99727.38;5050665;28;19916;-18
2022/05/24 10:52:47;;;;;;;;;;;;;;;22.91;55.81;99745.91;5048534;28;19917;-18
2022/05/24 10:55:20;;;;;;;;;;;;;;;22.87;56.20;99744.44;5031075;28;20280;-18
2022/05/24 10:58:05;;;;;;;;;;;;;;;22.79;56.76;99754.91;5031830;28;20353;-18
2022/05/24 11:00:34;;;;;;;;;;;;;;;22.70;57.44;99769.91;5048943;28;20347;-18
2022/05/24 11:03:00;;;;;;;;;;;;;;;22.54;58.18;99779.06;5027110;28;19909;-18
2022/05/24 11:05:45;;;;;;;;;;;;;;;22.41;58.55;99771.06;5044839;28;19924;-18
2022/05/24 11:08:17;;;;;;;;;;;;;;;22.36;59.31;99773.25;5032400;28;20383;-18
2022/05/24 11:10:42;;;;;;;;;;;;;;;22.33;58.71;99767.22;5029440;28;20299;-18
2022/05/24 11:13:11;;;;;;;;;;;;;;;22.29;58.87;99767.47;5032444;28;19913;-18
2022/05/24 11:15:39;;;;;;;;;;;;;;;22.30;59.05;99773.66;5046751;28;19916;-18
2022/05/24 11:18:10;;;;;;;;;;;;;;;22.30;59.11;99768.31;5026978;28;20506;-18
2022/05/24 11:20:37;;;;;;;;;;;;;;;22.38;59.05;99786.56;5030225;28;19908;-18
2022/05/24 11:23:05;;;;;;;;;;;;;;;22.40;58.92;99788.16;5046339;28;19974;-18
2022/05/24 11:25:31;;;;;;;;;;;;;;;22.51;58.27;99797.25;5032112;28;19954;-18
2022/05/24 11:27:56;;;;;;;;;;;;;;;22.47;57.16;99807.34;5039397;28;19916;-18
2022/05/24 11:30:24;;;;;;;;;;;;;;;22.42;56.67;99807.72;5046274;28;19966;-18
2022/05/24 11:32:51;;;;;;;;;;;;;;;22.40;57.31;99809.63;5049671;28;19992;-18
2022/05/24 11:35:19;;;;;;;;;;;;;;;22.46;56.63;99820.91;5033772;28;20333;-18
2022/05/24 11:37:45;;;;;;;;;;;;;;;22.48;56.25;99835.09;5046056;28;20372;-18
2022/05/24 11:40:31;;;;;;;;;;;;;;;22.46;55.98;99837.88;5043188;28;19993;-18
2022/05/24 11:42:59;;;;;;;;;;;;;;;22.48;55.30;99848.53;5043960;28;19909;-18
2022/05/24 11:45:28;;;;;;;;;;;;;;;22.47;54.77;99841.44;5044308;28;19917;-18
2022/05/24 11:47:53;;;;;;;;;;;;;;;22.47;54.95;99834.22;5046932;28;20003;-18
2022/05/24 11:50:31;;;;;;;;;;;;;;;22.47;54.11;99841.44;5044455;28;20004;-18
2022/05/24 11:53:28;;;;;;;;;;;;;;;22.43;53.84;99838.97;5050644;28;19919;-18
2022/05/24 11:55:57;;;;;;;;;;;;;;;22.37;53.33;99860.91;5017082;28;20332;-18
2022/05/24 11:58:22;;;;;;;;;;;;;;;22.36;52.62;99875.31;5042682;28;19962;-18
2022/05/24 12:00:57;;;;;;;;;;;;;;;22.36;51.10;99869.94;5045547;28;19921;-18
2022/05/24 12:09:13;;;;;;;;;;;;;;;22.18;51.05;99896.28;5028491;28;19932;-18
2022/05/24 12:11:38;;;;;;;;;;;;;;;22.14;50.57;99887.56;5041408;28;19920;-18
2022/05/24 12:14:10;;;;;;;;;;;;;;;22.13;49.60;99891.22;5030712;28;20353;-18
2022/05/24 12:16:39;;;;;;;;;;;;;;;22.18;49.61;99898.97;5046070;28;20375;-18
2022/05/24 12:19:06;;;;;;;;;;;;;;;22.20;49.69;99912.28;5032244;28;19920;-18
2022/05/24 12:21:41;;;;;;;;;;;;;;;22.22;49.13;99913.03;5042147;28;19913;-18
2022/05/24 12:24:24;;;;;;;;;;;;;;;22.23;49.65;99920.09;5042823;28;19917;-18
2022/05/24 12:27:08;;;;;;;;;;;;;;;22.21;50.40;99922.88;5047515;28;19916;-18
2022/05/24 12:29:33;;;;;;;;;;;;;;;22.24;50.33;99916.47;5048321;28;19913;-18
2022/05/24 12:32:03;;;;;;;;;;;;;;;22.28;50.63;99921.50;5047525;28;19962;-18
2022/05/24 12:34:29;;;;;;;;;;;;;;;22.27;50.18;99914.41;5048772;28;20031;-18
2022/05/24 12:36:54;;;;;;;;;;;;;;;22.37;49.86;99917.31;5047164;28;19912;-18
2022/05/24 12:39:23;;;;;;;;;;;;;;;22.43;49.86;99910.63;5047107;28;19909;-18
2022/05/24 12:41:55;;;;;;;;;;;;;;;22.47;50.08;99911.28;5044723;28;19908;-18
2022/05/24 12:44:30;;;;;;;;;;;;;;;22.50;50.61;99919.09;5046494;28;19967;-18
2022/05/24 12:47:02;;;;;;;;;;;;;;;22.51;49.87;99916.31;5043571;28;19979;-18
2022/05/24 12:49:28;;;;;;;;;;;;;;;22.55;50.22;99911.59;5043679;28;20344;-18
2022/05/24 12:51:55;;;;;;;;;;;;;;;22.62;50.40;99910.22;5047982;28;20380;-18
2022/05/24 12:54:33;;;;;;;;;;;;;;;22.72;49.81;99910.41;5026644;28;19943;-18
2022/05/24 12:57:01;;;;;;;;;;;;;;;22.70;49.53;99908.81;5047299;28;19909;-18
2022/05/24 12:59:35;;;;;;;;;;;;;;;22.68;48.77;99906.22;5045230;28;19963;-18
2022/05/24 13:02:21;;;;;;;;;;;;;;;22.72;48.96;99905.03;5045311;28;19970;-18
2022/05/24 13:04:47;;;;;;;;;;;;;;;22.72;48.66;99893.41;5042730;28;19938;-18
2022/05/24 13:07:18;;;;;;;;;;;;;;;22.65;48.86;99907.31;5045996;28;20361;-18
2022/05/24 13:09:43;;;;;;;;;;;;;;;22.58;49.23;99903.34;5028535;28;19913;-18
2022/05/24 13:12:08;;;;;;;;;;;;;;;22.71;49.97;99900.63;5041965;28;19917;-18
2022/05/24 13:14:46;;;;;;;;;;;;;;;22.87;48.44;99911.09;5045003;28;20624;-18
2022/05/24 13:17:11;;;;;;;;;;;;;;;22.92;48.25;99914.34;5044214;28;20035;-18
2022/05/24 13:19:44;;;;;;;;;;;;;;;22.97;49.16;99905.06;5024719;28;20410;-18
2022/05/24 13:22:09;;;;;;;;;;;;;;;23.10;49.14;99907.72;5047183;28;19959;-18
2022/05/24 13:24:34;;;;;;;;;;;;;;;23.22;49.64;99909.47;5046469;28;19958;-18
2022/05/24 13:27:00;;;;;;;;;;;;;;;23.38;49.64;99908.34;5012217;28;19912;-18
2022/05/24 13:29:29;;;;;;;;;;;;;;;23.43;47.65;99912.41;5048514;28;20322;-18
2022/05/24 13:34:38;;;;;;;;;;;;;;;23.55;46.96;99909.75;5041410;28;19935;-18
2022/05/24 13:37:07;;;;;;;;;;;;;;;23.66;46.56;99907.09;5044582;28;19912;-18
2022/05/24 13:39:39;;;;;;;;;;;;;;;23.80;45.92;99913.25;5039017;28;20430;-18
2022/05/24 13:42:07;;;;;;;;;;;;;;;23.68;45.88;99905.13;5043303;28;19952;-18